Airfield :
LOGIN :

Register | Disclaimer

   EN    FR    IT 

 










Legend :    VFR   Marginal VFR   IFR   Intensive IFR   Very Intensive IFR
Visi :
Ceiling :
>= 8 km
>= 3000ft
5 to 8 km
1000 to 3000 ft
1500m to 5 km
500 to 1000 ft
800 to 1500m
200 to 500 ft
< 800m
< 200 ft
Symbols :   Thunderstorms  Fog  Heavy snow  Heavy precipitations  Wind > 20 kt
SIGMETs :     Misc.  Thunderstorms  Icing  Turbulence  Mountain Waves  Volcanic Ashes






- Airport Elevation : 468 ft
- IATA code : GRO


LEGE - Girona Costa Brava

CURRENT METAR :
  • 021000Z 03013KT 350V060 9999 SCT026 BKN031 BKN060 11/07 Q1013

EXPIRED METARs :
  • 020930Z 02014KT 340V050 9999 BKN030 BKN059 OVC070 11/07 Q1014
  • 020900Z 02013KT 9999 BKN035 BKN056 OVC070 10/07 Q1013
  • 020830Z 01011KT 340V040 9999 FEW045 BKN050 BKN070 10/07 Q1013
  • 020800Z 01008KT 330V030 9999 SCT045 BKN060 09/07 Q1013
  • 020730Z 36007KT 330V050 9999 FEW015 BKN040 09/07 Q1013

TAF TAF LEGE
Valid from the 02 at 06:00 until the 03 at 06:00 UTC


020500Z 0206/0306 01010KT 7000 BKN025 TX12/0213Z TN07/0206Z
PROB40
TEMPO 0206/0209 3000 BR BKN008
PROB30
TEMPO 0206/0212 4000 RA BKN010 BKN020
BECMG 0218/0220 32007KT



MET'MAP, your aeronautical weather chart ! - Copyright ORBIFLY December 2007 - Disclaimer

ORBIFLY MET'MAP TEAM :

Programming & Development : Alexandra Zaïnal
Concept & original design : Baudouin d'Aumeries
Assistance for programming : Marc-Olivier Méhu
Technical & hardware support : Manuel Goepfert

Contact : metmap@orbifly.com




SOURCES & CREDITS :

   NOAA